<?xml version='1.0' encoding='UTF-8'?>
<gpx xmlns="http://www.topografix.com/GPX/1/1" creator="www.balnam.be" version="1.1" xmlns:xsi="http://www.w3.org/2001/XMLSchema-instance" xsi:schemaLocation="http://www.topografix.com/GPX/1/1 http://www.topografix.com/GPX/1/1/gpx.xsd">
<trk>
<name>lvvla19</name>
<cmt>q</cmt>
<desc>Lambermont Sentier n°19 Rue Tribomont / Rue Bruyère du Fourneau</desc>
<link href="https://chemins.be/lambermont/sentier/19"/><trkseg>
<trkpt lat="50.600789" lon="5.821077"><time>2026-05-07T23:00:13Z</time></trkpt>
<trkpt lat="50.600925" lon="5.822464"><time>2026-05-07T23:10:13Z</time></trkpt>
</trkseg></trk>
<trk>
<name>lvvla19</name>
<cmt>r</cmt>
<desc>Lambermont Sentier n°19 Rue Tribomont / Rue Bruyère du Fourneau</desc>
<link href="https://chemins.be/lambermont/sentier/19"/><trkseg>
<trkpt lat="50.600925" lon="5.822464"><time>2026-05-07T23:10:13Z</time></trkpt>
<trkpt lat="50.599844" lon="5.825454"><time>2026-05-07T23:20:13Z</time></trkpt>
</trkseg></trk>
<trk>
<name>lvvla19</name>
<cmt>q</cmt>
<desc>Lambermont Sentier n°19 Rue Tribomont / Rue Bruyère du Fourneau</desc>
<link href="https://chemins.be/lambermont/sentier/19"/><trkseg>
<trkpt lat="50.599844" lon="5.825454"><time>2026-05-07T23:20:13Z</time></trkpt>
<trkpt lat="50.600244" lon="5.827414"><time>2026-05-07T23:30:13Z</time></trkpt>
<trkpt lat="50.600308" lon="5.828579"><time>2026-05-07T23:40:13Z</time></trkpt>
</trkseg></trk>
<trk>
<name>lvvla19</name>
<cmt>v</cmt>
<desc>Lambermont Sentier n°19 Rue Tribomont / Rue Bruyère du Fourneau</desc>
<link href="https://chemins.be/lambermont/sentier/19"/><trkseg>
<trkpt lat="50.600308" lon="5.828579"><time>2026-05-07T23:40:13Z</time></trkpt>
<trkpt lat="50.599833" lon="5.830382"><time>2026-05-07T23:50:13Z</time></trkpt>
</trkseg></trk>
<trk>
<name>lvvla19</name>
<cmt>r</cmt>
<desc>Lambermont Sentier n°19 Rue Tribomont / Rue Bruyère du Fourneau</desc>
<link href="https://chemins.be/lambermont/sentier/19"/><trkseg>
<trkpt lat="50.599833" lon="5.830382"><time>2026-05-07T23:50:13Z</time></trkpt>
<trkpt lat="50.600507" lon="5.831491"><time>2026-05-08T00:00:13Z</time></trkpt>
</trkseg></trk>
<trk>
<name>lvvla19</name>
<cmt>q</cmt>
<desc>Lambermont Sentier n°19 Rue Tribomont / Rue Bruyère du Fourneau</desc>
<link href="https://chemins.be/lambermont/sentier/19"/><trkseg>
<trkpt lat="50.600507" lon="5.831491"><time>2026-05-08T00:00:13Z</time></trkpt>
<trkpt lat="50.598832" lon="5.833109"><time>2026-05-08T00:10:13Z</time></trkpt>
<trkpt lat="50.598782" lon="5.833695"><time>2026-05-08T00:20:13Z</time></trkpt>
<trkpt lat="50.597860" lon="5.835577"><time>2026-05-08T00:30:13Z</time></trkpt>
<trkpt lat="50.596839" lon="5.836599"><time>2026-05-08T00:40:13Z</time></trkpt>
<trkpt lat="50.596576" lon="5.837894"><time>2026-05-08T00:50:13Z</time></trkpt>
<trkpt lat="50.595754" lon="5.838008"><time>2026-05-08T01:00:13Z</time></trkpt>
<trkpt lat="50.595436" lon="5.839110"><time>2026-05-08T01:10:13Z</time></trkpt>
<trkpt lat="50.595581" lon="5.841399"><time>2026-05-08T01:20:13Z</time></trkpt>
<trkpt lat="50.595400" lon="5.842558"><time>2026-05-08T01:30:13Z</time></trkpt>
<trkpt lat="50.595441" lon="5.843458"><time>2026-05-08T01:40:13Z</time></trkpt>
</trkseg></trk>
<trk>
<name>lvvla19</name>
<cmt>s</cmt>
<desc>Lambermont Sentier n°19 Rue Tribomont / Rue Bruyère du Fourneau</desc>
<link href="https://chemins.be/lambermont/sentier/19"/><trkseg>
<trkpt lat="50.595441" lon="5.843458"><time>2026-05-08T01:40:13Z</time></trkpt>
<trkpt lat="50.595513" lon="5.844974"><time>2026-05-08T01:50:13Z</time></trkpt>
</trkseg></trk>
<trk>
<name>lvvla19</name>
<cmt>q</cmt>
<desc>Lambermont Sentier n°19 Rue Tribomont / Rue Bruyère du Fourneau</desc>
<link href="https://chemins.be/lambermont/sentier/19"/><trkseg>
<trkpt lat="50.595513" lon="5.844974"><time>2026-05-08T01:50:13Z</time></trkpt>
<trkpt lat="50.595568" lon="5.846384"><time>2026-05-08T02:00:13Z</time></trkpt>
</trkseg>
</trk>
</gpx>